Flight Track Log - Related Links

Times and Time Zones

All times are in EDT time to prevent confusion due to time zone crossing. See the N29305 flight status page for this flight to view local times or setup timezone preferences in your user account.

Time Position Orientation Groundspeed Altitude Reporting Facility
EDT Latitude Longitude Course Direction KTS MPH feet Rate Location/Type
Tue 10:06:24 AM 42.6644 -83.4381 265° West 94 108 1,500  Level Cleveland Center
Tue 10:07:37 AM 42.6614 -83.4831 265° West 92 106 2,300 582 Climbing Cleveland Center
Tue 10:08:38 AM 42.6669 -83.5114 285° West 91 105 2,800 466 Climbing Cleveland Center
Tue 10:09:33 AM 42.6894 -83.5181 348° North 95 109 3,200 436 Climbing Cleveland Center
Tue 10:11:00 AM 42.7226 -83.4706 46° Northeast  Level FlightAware Approximate
Tue 10:18:00 AM 42.9443 -83.4082 325° Northwest  Level FlightAware Approximate
Tue 10:19:00 AM 42.9716 -83.4340 325° Northwest  Level FlightAware Approximate
Tue 10:20:00 AM 42.9989 -83.4597 325° Northwest  Level FlightAware Approximate
Tue 10:21:00 AM 43.0263 -83.4855 325° Northwest  Level FlightAware Approximate
Tue 10:22:00 AM 43.0536 -83.5113 325° Northwest  Level FlightAware Approximate
Tue 10:23:00 AM 43.0809 -83.5371 325° Northwest  Level FlightAware Approximate
Tue 10:24:00 AM 43.1082 -83.5630 325° Northwest  Level FlightAware Approximate
Tue 10:25:00 AM 43.1355 -83.5888 325° Northwest  Level FlightAware Approximate
Tue 10:26:00 AM 43.1628 -83.6147 325° Northwest  Level FlightAware Approximate
Tue 10:27:00 AM 43.1901 -83.6406 325° Northwest  Level FlightAware Approximate
Tue 10:28:00 AM 43.2186 -83.6639 331° Northwest  Level FlightAware Approximate
Tue 10:29:00 AM 43.2477 -83.6858 331° Northwest  Level FlightAware Approximate
Tue 10:30:00 AM 43.2761 -83.7094 324° Northwest  Level FlightAware Approximate
Tue 10:31:00 AM 43.3029 -83.7362 324° Northwest  Level FlightAware Approximate
Tue 10:32:00 AM 43.3298 -83.7630 324° Northwest  Level FlightAware Approximate
Tue 10:33:00 AM 43.3566 -83.7899 324° Northwest  Level FlightAware Approximate
Tue 10:34:00 AM 43.3835 -83.8168 334° Northwest  Level FlightAware Approximate
Tue 10:35:00 AM 43.4134 -83.8367 334° Northwest  Level FlightAware Approximate
Tue 10:36:00 AM 43.4333 -83.8500 334° Northwest  Level FlightAware Approximate

Login

Don't have an account? Register now (free) for customized features, flight alerts, and more!